Decoded Metar for UIII (IRKUTSK in RUSSIA) (IATA:IKT) | Meteo·Mobile Aviation Weather
aviador You're here:

UIII Decoded Metar

IRKUTSK in RUSSIA
Report Time2018-08-21 11:30:00
UTC Time2018-08-21 12:10:40
Flight Rules vfr VFR
Wind200° at 10 kt
W.Decomp.*RWY 12: 1.0 kt HW 9.9 kt RCW
W.Rank200° ranks 23
Current wind is above 200° avg. (4.9)
Visibility9999 m
Phenomena:N/A
Clouds:N/A
Expected CloudBase > 3,600 ft AGL from Temp-Dew spread
CeilingNone
Temp22°C (ISA +10)
Dew Point13°C (57% RH)
AAT19.4°C
QNH1007 hPa
Density Alt3,291 ft
Elevation1,683 ft
Report Wrong Elevation
Raw Report
UIII 211130Z 20005MPS CAVOK 22/13 Q1007 R12/CLRD60 NOSIG RMK
QFE713/0951=

Extra information for UIII:More info

Metar Taf Metar & Taf Last 4 Metars F.Rules Stats Wind Profile Meteogram Temp Stats Airport Information Weather charts Add Link Nearby VenuesMetar ALERT Operation Metar Decoded Social comments